Time;durP1;ratioP1;P1;durP2;ratioP2;P2;SDS_P1;SDS_P2;PMS_P1;PMS_P2;Temp;Humidity;BMP_temperature;BMP_pressure;BME280_temperature;BME280_humidity;BME280_pressure;Samples;Min_cycle;Max_cycle;Signal;HPM_P1;HPM_P2
2022/06/25 00:09:37;;;;;;;0.90;0.70;;;22.60;63.90;;;21.57;52.05;99573.59;10404346;28;97078;-90
2022/06/25 00:14:39;;;;;;;1.65;0.90;;;22.50;64.10;;;21.49;51.95;99576.78;10392438;28;97652;-92
2022/06/25 00:19:43;;;;;;;1.70;0.93;;;22.40;64.70;;;21.39;50.93;99585.56;10403398;28;96619;-89
2022/06/25 00:24:45;;;;;;;1.25;0.82;;;22.30;63.20;;;21.32;49.61;99598.47;10379682;28;96399;-88
2022/06/25 00:29:49;;;;;;;1.38;0.50;;;22.30;62.30;;;21.27;48.01;99607.28;10407791;27;96556;-88
2022/06/25 00:34:52;;;;;;;1.48;0.60;;;22.30;60.80;;;21.21;48.29;99602.09;10418879;27;96612;-89
2022/06/25 00:39:55;;;;;;;0.65;0.47;;;22.20;61.00;;;21.10;48.08;99606.53;10416618;27;98288;-89
2022/06/25 00:44:58;;;;;;;1.08;0.60;;;22.10;60.90;;;21.00;48.35;99604.53;10420180;27;96508;-89
2022/06/25 00:50:01;;;;;;;0.95;0.70;;;22.00;61.00;;;20.96;48.88;99599.88;10419592;27;97792;-90
2022/06/25 00:55:12;;;;;;;1.05;0.57;;;21.90;61.30;;;20.88;49.60;99598.44;10414912;27;99044;-90
2022/06/25 01:00:17;;;;;;;1.17;0.80;;;21.90;62.20;;;20.84;49.28;99608.09;10393400;28;98654;-91
2022/06/25 01:05:20;;;;;;;1.63;0.60;;;21.80;62.00;;;20.81;49.20;99616.69;10425872;27;97059;-92
2022/06/25 01:10:23;;;;;;;0.57;0.43;;;21.80;61.60;;;20.85;49.07;99607.84;10418967;27;96776;-91
2022/06/25 01:15:27;;;;;;;1.60;0.70;;;21.80;61.40;;;20.86;49.55;99622.16;10398486;28;97405;-89
2022/06/25 01:20:30;;;;;;;0.95;0.60;;;21.80;62.00;;;20.89;49.30;99640.59;10416797;27;96778;-89
2022/06/25 01:25:38;;;;;;;1.05;0.60;;;21.80;61.80;;;20.94;51.06;99646.06;10411563;27;96752;-87
2022/06/25 01:30:41;;;;;;;0.80;0.60;;;21.90;64.10;;;20.97;52.80;99642.03;10413611;28;96612;-87
2022/06/25 01:35:44;;;;;;;0.80;0.70;;;21.90;66.30;;;20.87;54.22;99639.19;10401155;27;97538;-87
2022/06/25 01:40:47;;;;;;;1.08;0.73;;;21.80;67.20;;;20.69;53.86;99632.16;10417424;27;97811;-87
2022/06/25 01:45:50;;;;;;;0.65;0.50;;;21.60;66.30;;;20.57;53.96;99621.47;10410187;28;98102;-87
2022/06/25 01:50:53;;;;;;;1.73;1.00;;;21.50;66.40;;;20.53;56.05;99626.56;10414866;28;96725;-88
2022/06/25 01:55:56;;;;;;;0.90;0.60;;;21.50;67.90;;;20.45;55.50;99624.28;10413391;27;99425;-87
2022/06/25 02:00:59;;;;;;;1.25;0.82;;;21.40;67.60;;;20.40;55.96;99629.56;10397965;27;97687;-88
2022/06/25 02:06:02;;;;;;;2.25;0.80;;;21.40;67.50;;;20.37;56.92;99621.13;10413799;27;96774;-88
2022/06/25 02:11:08;;;;;;;1.40;0.93;;;21.40;69.10;;;20.36;56.85;99625.72;10411453;27;97550;-89
2022/06/25 02:16:11;;;;;;;0.98;0.60;;;21.30;69.10;;;20.32;57.93;99621.88;10397423;28;97173;-89
2022/06/25 02:21:15;;;;;;;1.45;0.70;;;21.30;69.40;;;20.26;58.67;99629.06;10415800;28;96494;-89
2022/06/25 02:26:18;;;;;;;0.82;0.60;;;21.30;71.60;;;20.13;59.03;99623.19;10411331;27;96676;-89
2022/06/25 02:31:20;;;;;;;1.23;0.75;;;21.20;70.60;;;20.09;59.85;99622.88;10404130;28;96733;-90
2022/06/25 02:36:23;;;;;;;0.88;0.60;;;21.10;71.60;;;20.03;60.10;99640.00;10413240;28;98222;-89
2022/06/25 02:41:27;;;;;;;0.73;0.65;;;21.10;71.40;;;19.95;60.01;99633.13;10414661;27;98698;-90
2022/06/25 02:46:29;;;;;;;1.20;0.70;;;21.00;71.40;;;19.90;60.35;99618.72;10414115;27;96578;-90
2022/06/25 02:51:33;;;;;;;0.77;0.70;;;20.90;71.50;;;19.86;61.25;99621.13;10416595;28;96662;-89
2022/06/25 03:01:57;;;;;;;1.15;0.80;;;20.80;74.50;;;19.65;62.57;99627.19;10421908;27;97176;-90
2022/06/25 03:07:00;;;;;;;1.35;0.90;;;20.70;74.40;;;19.50;61.45;99633.91;10420664;27;96620;-86
2022/06/25 03:12:04;;;;;;;0.60;0.60;;;20.60;73.30;;;19.46;59.87;99648.09;10414605;28;98355;-86
2022/06/25 03:17:07;;;;;;;0.70;0.55;;;20.50;72.50;;;19.40;59.79;99641.78;10418984;28;96636;-86
2022/06/25 03:22:09;;;;;;;1.25;0.70;;;20.50;72.70;;;19.41;61.34;99640.72;10428534;27;96576;-86
2022/06/25 03:27:12;;;;;;;2.75;1.65;;;20.40;72.80;;;19.38;62.73;99643.06;10418849;28;97541;-86
2022/06/25 03:32:15;;;;;;;1.48;0.90;;;20.40;75.60;;;19.36;63.13;99640.59;10419293;27;97495;-86
2022/06/25 03:37:18;;;;;;;1.15;0.70;;;20.40;76.70;;;19.34;63.36;99640.03;10419317;28;96551;-87
2022/06/25 03:42:24;;;;;;;1.08;0.73;;;20.30;76.20;;;19.30;64.25;99633.47;10437908;27;97719;-87
2022/06/25 03:47:28;;;;;;;0.50;0.50;;;20.30;77.80;;;19.28;64.25;99640.97;10400107;27;96797;-87
2022/06/25 03:52:31;;;;;;;1.55;0.82;;;20.20;77.10;;;19.29;64.43;99645.31;10418133;28;96629;-87
2022/06/25 03:57:35;;;;;;;1.23;0.55;;;20.20;77.10;;;19.35;61.80;99649.75;10400968;27;98320;-87
2022/06/25 04:02:39;;;;;;;2.15;0.70;;;20.30;75.30;;;19.52;60.88;99652.50;10395067;28;98004;-91
2022/06/25 04:07:42;;;;;;;2.03;1.00;;;20.40;74.50;;;19.71;59.54;99654.00;10415719;27;98237;-91
2022/06/25 04:12:45;;;;;;;1.00;0.60;;;20.60;73.50;;;19.90;59.11;99651.91;10395002;27;96628;-91
2022/06/25 04:17:48;;;;;;;0.80;0.50;;;20.80;73.00;;;20.03;58.76;99657.03;10402325;27;98517;-90
2022/06/25 04:22:51;;;;;;;1.10;0.60;;;20.90;72.80;;;20.22;57.61;99648.72;10416027;28;98369;-89
2022/06/25 04:33:16;;;;;;;1.02;0.80;;;21.20;72.60;;;20.42;58.75;99654.41;10415832;27;96906;-90
2022/06/25 04:38:20;;;;;;;1.38;0.85;;;21.30;73.30;;;20.48;58.50;99656.16;10399732;28;97712;-90
2022/06/25 04:43:23;;;;;;;0.70;0.60;;;21.40;72.70;;;20.54;57.72;99665.97;10417908;27;96882;-90
2022/06/25 04:48:26;;;;;;;0.70;0.50;;;21.50;72.10;;;20.61;57.30;99659.59;10417690;27;96592;-90
2022/06/25 04:53:29;;;;;;;0.77;0.65;;;21.50;71.50;;;20.67;57.71;99674.81;10418333;28;97555;-89
2022/06/25 04:58:32;;;;;;;1.17;0.68;;;21.60;71.90;;;20.69;56.30;99672.66;10404952;28;96662;-89
2022/06/25 05:03:35;;;;;;;1.10;0.70;;;21.60;70.60;;;20.74;55.41;99678.97;10418989;27;96887;-90
2022/06/25 05:08:38;;;;;;;0.93;0.60;;;21.60;70.10;;;20.78;55.28;99684.69;10403735;28;96665;-90
2022/06/25 05:13:41;;;;;;;2.63;1.02;;;21.70;69.50;;;20.88;57.38;99689.44;10404863;28;98465;-90
2022/06/25 05:18:45;;;;;;;1.83;0.90;;;21.80;71.90;;;20.96;62.02;99695.22;10418116;27;97732;-91
2022/06/25 05:23:49;;;;;;;1.65;1.17;;;21.80;78.10;;;20.99;62.75;99697.47;10385675;28;97413;-86
2022/06/25 05:28:54;;;;;;;1.98;0.90;;;21.80;77.70;;;21.02;61.65;99691.53;10418779;27;96694;-88
2022/06/25 05:33:58;;;;;;;1.20;0.70;;;21.80;76.20;;;21.03;59.57;99693.16;10416498;28;97277;-87
2022/06/25 05:39:01;;;;;;;1.08;0.77;;;21.90;74.40;;;21.04;58.42;99693.97;10434386;27;97778;-87
2022/06/25 05:44:04;;;;;;;1.60;0.60;;;21.90;73.30;;;21.05;57.72;99692.91;10420440;27;96627;-87
2022/06/25 05:49:07;;;;;;;1.95;1.17;;;21.90;72.70;;;21.10;56.79;99696.50;10413981;27;98616;-88
2022/06/25 05:54:10;;;;;;;1.30;0.55;;;22.00;71.90;;;21.18;56.29;99699.88;10418449;27;96661;-88
2022/06/25 05:59:13;;;;;;;0.90;0.70;;;22.00;71.50;;;21.35;55.19;99700.66;10407126;28;98445;-88
2022/06/25 06:04:16;;;;;;;0.75;0.50;;;22.20;70.60;;;21.66;53.79;99703.75;10410704;27;98392;-87
2022/06/25 06:09:22;;;;;;;1.48;0.82;;;22.40;69.70;;;21.87;51.15;99701.00;10418712;27;96774;-88
2022/06/25 06:14:25;;;;;;;0.80;0.60;;;22.60;66.80;;;22.09;49.96;99690.19;10414020;27;97046;-87
2022/06/25 06:19:28;;;;;;;1.08;0.70;;;22.90;65.70;;;22.28;49.43;99697.94;10418120;27;96704;-88
2022/06/25 06:24:32;;;;;;;0.80;0.55;;;23.10;64.90;;;22.44;49.80;99691.59;10398296;27;96532;-87
2022/06/25 06:29:35;;;;;;;1.58;0.90;;;23.20;65.40;;;22.68;48.48;99686.63;10416868;28;96435;-88
2022/06/25 06:34:38;;;;;;;1.30;0.80;;;23.50;64.20;;;22.90;47.62;99686.53;10419714;27;96625;-87
2022/06/25 06:39:40;;;;;;;1.00;0.60;;;23.70;60.80;;;23.07;46.92;99697.19;10415378;28;97009;-87
2022/06/25 06:44:43;;;;;;;1.70;0.60;;;23.90;62.80;;;23.30;46.16;99701.41;10417538;27;96507;-87
2022/06/25 06:49:46;;;;;;;1.13;0.68;;;24.10;62.90;;;23.47;45.57;99702.03;10406910;27;98283;-87
2022/06/25 06:54:50;;;;;;;0.88;0.50;;;24.30;61.00;;;23.65;45.59;99701.59;10418294;27;96561;-87
2022/06/25 06:59:53;;;;;;;0.88;0.60;;;24.50;61.20;;;23.87;44.71;99701.41;10417765;27;96610;-87
2022/06/25 07:04:56;;;;;;;1.50;0.80;;;24.70;60.80;;;24.03;44.38;99696.78;10402702;28;96579;-87
2022/06/25 07:09:59;;;;;;;0.90;0.70;;;24.90;58.10;;;24.13;44.95;99701.44;10418323;27;98374;-90
2022/06/25 07:15:02;;;;;;;1.30;0.80;;;24.90;59.60;;;24.32;44.09;99696.28;10424484;27;96581;-86
2022/06/25 07:20:06;;;;;;;1.00;0.60;;;25.10;59.00;;;24.48;42.08;99695.25;10405219;28;96590;-87
2022/06/25 07:25:09;;;;;;;0.68;0.55;;;25.20;57.80;;;24.64;41.56;99688.72;10418557;27;98998;-87
2022/06/25 07:30:13;;;;;;;1.30;0.70;;;25.40;57.00;;;24.86;41.38;99703.91;10407599;28;98229;-87
2022/06/25 07:35:15;;;;;;;1.77;0.95;;;25.60;57.00;;;24.93;40.68;99699.00;10439552;27;96592;-87
2022/06/25 07:40:21;;;;;;;3.75;0.73;;;25.70;55.80;;;24.97;41.01;99700.09;10396571;28;98141;-86
2022/06/25 07:45:24;;;;;;;1.10;0.80;;;25.70;56.70;;;25.09;41.72;99698.75;10417091;27;97855;-86
2022/06/25 07:55:52;;;;;;;1.85;1.23;;;26.00;56.50;;;25.31;43.92;99701.13;10409158;27;98520;-87
2022/06/25 08:00:55;;;;;;;1.60;1.10;;;26.10;58.10;;;25.47;45.38;99710.03;10415666;28;98762;-86
2022/06/25 08:05:59;;;;;;;2.40;1.30;;;26.20;59.60;;;25.62;45.75;99717.34;10420355;27;96872;-87
2022/06/25 08:11:06;;;;;;;3.00;1.58;;;26.30;60.60;;;25.75;47.53;99724.13;10393295;28;96647;-89
2022/06/25 08:16:38;;;;;;;2.17;1.27;;;26.50;63.40;;;25.78;46.78;99732.50;10403760;27;97678;-89
2022/06/25 08:21:43;;;;;;;2.10;1.35;;;26.50;62.20;;;25.67;47.36;99732.81;10421109;27;96561;-90
2022/06/25 08:27:00;;;;;;;2.13;1.15;;;26.40;62.20;;;25.67;47.57;99739.09;10421131;28;98464;-90
2022/06/25 08:32:06;;;;;;;1.63;1.23;;;26.40;63.60;;;25.74;48.41;99742.34;10364137;28;97199;-87
2022/06/25 08:37:16;;;;;;;1.02;0.88;;;26.50;65.00;;;25.83;47.77;99737.94;10344149;28;96793;-87
2022/06/25 08:42:30;;;;;;;1.65;1.20;;;26.50;63.80;;;25.97;48.55;99735.44;10362312;28;96750;-88
2022/06/25 08:47:53;;;;;;;2.17;1.30;;;26.70;64.30;;;26.20;48.85;99742.09;10340765;28;97050;-89
2022/06/25 08:53:06;;;;;;;1.45;1.15;;;26.90;65.50;;;26.20;48.29;99744.00;10361824;28;97329;-92
2022/06/25 08:58:16;;;;;;;1.58;0.80;;;27.00;64.20;;;25.94;48.77;99751.50;10341953;28;97393;-87
2022/06/25 09:03:57;;;;;;;1.48;1.10;;;26.80;64.50;;;25.91;49.97;99755.63;10362357;28;96725;-88
2022/06/25 09:09:23;;;;;;;1.70;1.20;;;26.70;65.80;;;26.00;49.41;99747.66;10364421;28;97064;-91
2022/06/25 09:14:32;;;;;;;2.88;1.40;;;26.70;65.50;;;26.06;49.81;99739.19;10359469;28;96609;-90
2022/06/25 09:19:39;;;;;;;3.03;1.50;;;26.70;66.10;;;26.17;49.70;99739.94;10364191;28;96972;-90
2022/06/25 09:24:58;;;;;;;2.03;1.08;;;26.90;66.40;;;26.36;50.22;99742.81;10395956;28;96651;-88
2022/06/25 09:30:17;;;;;;;2.17;1.45;;;27.00;66.10;;;26.43;49.13;99748.78;10382120;28;96609;-90
2022/06/25 09:35:38;;;;;;;1.17;0.90;;;27.20;65.50;;;26.35;49.09;99735.75;10357319;28;96548;-89
2022/06/25 09:40:59;;;;;;;2.00;1.17;;;27.10;65.50;;;26.48;49.81;99746.03;10354307;28;96689;-87
2022/06/25 09:46:06;;;;;;;1.67;1.33;;;27.20;66.70;;;26.51;49.04;99741.91;10386929;28;96787;-85
2022/06/25 09:51:14;;;;;;;2.13;1.13;;;27.20;65.50;;;26.57;48.83;99747.06;10362773;28;97498;-85
2022/06/25 09:56:23;;;;;;;1.98;1.05;;;27.30;65.20;;;26.68;48.50;99743.13;10370172;28;96773;-88
2022/06/25 10:01:28;;;;;;;;;;;27.30;64.60;;;26.86;48.98;99735.34;10364781;28;96732;-87
2022/06/25 10:06:38;;;;;;;1.55;1.08;;;27.50;65.80;;;27.10;48.58;99747.13;10360402;28;96777;-92
2022/06/25 10:11:41;;;;;;;1.80;1.38;;;27.70;65.40;;;27.24;47.86;99730.91;10360237;28;98323;-87
2022/06/25 10:16:45;;;;;;;1.98;1.23;;;27.90;64.80;;;27.27;47.21;99730.31;10382555;28;96985;-89
2022/06/25 10:21:54;;;;;;;1.77;1.30;;;28.00;64.00;;;27.42;46.90;99732.91;10368358;28;96682;-87
2022/06/25 10:26:57;;;;;;;1.67;1.10;;;28.10;63.90;;;27.58;47.30;99719.88;10377748;28;97134;-89
2022/06/25 10:32:18;;;;;;;1.10;0.93;;;28.30;64.20;;;27.67;46.08;99717.31;10385559;28;96478;-92
2022/06/25 10:37:21;;;;;;;1.42;0.98;;;28.40;63.20;;;27.71;45.99;99721.13;10381683;28;96547;-90
2022/06/25 10:47:53;;;;;;;1.52;1.10;;;28.40;62.70;;;27.86;45.88;99709.19;10384937;28;96641;-90
2022/06/25 10:53:05;;;;;;;1.40;0.70;;;28.50;63.20;;;27.89;45.23;99698.50;10378131;28;96807;-87
2022/06/25 10:58:22;;;;;;;1.52;0.70;;;28.60;61.40;;;27.84;45.38;99701.28;10369993;28;97043;-86
2022/06/25 11:03:28;;;;;;;1.02;0.77;;;28.50;62.40;;;27.96;45.30;99704.38;10373024;28;96606;-86
2022/06/25 11:08:36;;;;;;;2.92;1.27;;;28.60;62.10;;;28.03;45.23;99693.09;10376734;28;96542;-86
2022/06/25 11:13:42;;;;;;;1.92;1.10;;;28.70;62.80;;;28.21;44.40;99694.19;10356984;28;96636;-88
2022/06/25 11:18:58;;;;;;;1.48;0.85;;;28.80;60.80;;;28.35;44.72;99688.81;10374677;28;97375;-86
2022/06/25 11:24:26;;;;;;;1.10;0.93;;;29.00;62.30;;;28.59;44.11;99685.94;10379366;28;96531;-86
2022/06/25 11:29:49;;;;;;;1.42;1.08;;;29.20;61.20;;;28.73;43.74;99690.34;10381141;28;97117;-88
2022/06/25 11:34:58;;;;;;;4.47;0.85;;;29.30;60.90;;;28.79;43.27;99691.88;10383494;28;96609;-87
2022/06/25 11:40:01;;;;;;;1.40;0.68;;;29.40;60.40;;;28.78;42.88;99694.91;10380718;28;96575;-86
2022/06/25 11:45:04;;;;;;;1.33;0.82;;;29.40;60.00;;;28.90;42.80;99695.22;10381293;28;96680;-89
2022/06/25 11:50:11;;;;;;;1.48;0.75;;;29.50;59.90;;;29.00;41.64;99684.13;10375585;28;98177;-85
2022/06/25 11:55:14;;;;;;;2.60;0.82;;;29.60;58.30;;;29.06;41.77;99682.13;10369243;28;98083;-85
2022/06/25 12:00:17;;;;;;;2.25;0.65;;;29.70;58.70;;;29.09;41.57;99691.63;10378007;28;96651;-87
2022/06/25 12:05:23;;;;;;;1.33;0.60;;;29.70;58.30;;;29.13;42.17;99681.72;10374858;28;97416;-84
2022/06/25 12:10:29;;;;;;;0.80;0.52;;;29.80;60.20;;;29.15;41.88;99668.53;10378916;28;98083;-85
2022/06/25 12:15:32;;;;;;;0.90;0.60;;;29.80;58.70;;;29.44;41.35;99652.59;10363899;28;96530;-83
2022/06/25 12:20:53;;;;;;;0.77;0.50;;;30.00;58.50;;;29.46;40.50;99663.28;10378802;28;96501;-85
2022/06/25 12:25:56;;;;;;;0.80;0.50;;;30.10;57.90;;;29.38;40.92;99656.56;10378753;28;96713;-84
2022/06/25 12:31:15;;;;;;;0.93;0.68;;;30.00;58.10;;;29.28;41.22;99645.84;10362158;28;98380;-87
2022/06/25 12:36:19;;;;;;;1.10;0.52;;;29.90;58.00;;;29.30;41.84;99640.88;10372008;28;98636;-85
2022/06/25 12:41:47;;;;;;;0.75;0.30;;;29.90;58.70;;;29.42;40.42;99632.16;10378737;28;96571;-86
2022/06/25 12:47:22;;;;;;;0.60;0.40;;;30.10;57.40;;;29.47;39.84;99632.84;10363025;28;96456;-85
2022/06/25 12:52:37;;;;;;;5.43;0.60;;;30.10;56.70;;;29.62;40.20;99630.91;10377464;28;99250;-88
2022/06/25 12:57:40;;;;;;;1.00;0.50;;;30.20;57.30;;;29.75;39.61;99628.16;10377053;28;96715;-88
2022/06/25 13:02:43;;;;;;;1.00;0.50;;;30.30;57.20;;;29.75;39.54;99638.31;10376237;28;98280;-86
2022/06/25 13:07:52;;;;;;;0.80;0.40;;;30.40;56.50;;;29.66;38.89;99635.47;10377573;28;96705;-84
2022/06/25 13:12:55;;;;;;;0.60;0.32;;;30.30;56.30;;;29.62;39.44;99639.13;10378576;28;97359;-83
2022/06/25 13:17:58;;;;;;;0.38;0.22;;;30.20;56.50;;;29.56;39.71;99635.69;10377085;28;96606;-85
2022/06/25 13:23:01;;;;;;;1.20;0.55;;;30.10;56.80;;;29.65;39.16;99625.66;10371593;28;96660;-82
2022/06/25 13:28:04;;;;;;;0.47;0.30;;;30.20;57.10;;;29.81;40.02;99632.41;10376677;28;96547;-82
2022/06/25 13:33:07;;;;;;;0.70;0.20;;;30.30;57.40;;;29.91;39.35;99625.84;10360074;28;96531;-83
2022/06/25 13:38:10;;;;;;;0.28;0.20;;;30.40;56.70;;;29.95;38.60;99629.59;10376137;28;96486;-80
2022/06/25 13:43:13;;;;;;;0.32;0.30;;;30.50;55.70;;;30.04;39.47;99622.25;10367975;28;97120;-84
2022/06/25 13:48:16;;;;;;;0.63;0.30;;;30.50;56.30;;;30.08;39.54;99620.50;10379180;28;96935;-89
2022/06/25 13:53:22;;;;;;;0.47;0.30;;;30.60;57.20;;;30.07;38.99;99623.56;10378432;28;96871;-89
2022/06/25 13:58:25;;;;;;;1.17;0.45;;;30.60;56.70;;;30.10;39.25;99612.81;10378744;28;96799;-88
2022/06/25 14:03:29;;;;;;;0.50;0.30;;;30.60;56.30;;;30.13;38.24;99627.03;10375143;28;98510;-88
2022/06/25 14:08:39;;;;;;;0.30;0.30;;;30.60;55.40;;;30.10;39.00;99612.81;10371129;28;97367;-89
2022/06/25 14:13:42;;;;;;;0.40;0.32;;;30.60;56.30;;;30.07;38.36;99629.84;10367162;28;97001;-90
2022/06/25 14:18:46;;;;;;;0.40;0.22;;;30.60;55.30;;;30.15;38.54;99639.28;10378538;28;96416;-89
2022/06/25 14:23:51;;;;;;;0.32;0.20;;;30.60;55.80;;;30.27;37.97;99661.44;10376232;28;96470;-89
2022/06/25 14:28:55;;;;;;;0.40;0.30;;;30.80;54.60;;;30.28;38.49;99665.00;10360460;28;97706;-87
2022/06/25 14:33:58;;;;;;;0.40;0.28;;;30.80;56.00;;;30.32;37.67;99679.72;10375053;28;96775;-88
2022/06/25 14:44:24;;;;;;;0.40;0.30;;;30.80;54.10;;;30.32;37.21;99685.19;10375085;28;96508;-85
2022/06/25 14:49:27;;;;;;;1.67;0.52;;;30.90;54.80;;;30.37;37.18;99691.38;10375753;28;96608;-86
2022/06/25 14:54:30;;;;;;;0.75;0.30;;;30.90;54.60;;;30.68;37.05;99692.53;10387995;28;97629;-85
2022/06/25 14:59:33;;;;;;;0.28;0.25;;;31.20;54.60;;;30.78;37.23;99703.28;10355173;28;97121;-85
2022/06/25 15:04:36;;;;;;;0.38;0.28;;;31.30;54.70;;;30.82;36.88;99706.97;10393370;28;96795;-89
2022/06/25 15:09:39;;;;;;;0.28;0.28;;;31.30;54.30;;;30.88;35.72;99723.00;10364355;28;98452;-90
2022/06/25 15:14:42;;;;;;;0.20;0.20;;;31.50;52.20;;;30.44;34.07;99742.19;10377468;28;96589;-92
2022/06/25 15:19:45;;;;;;;0.25;0.20;;;31.30;51.10;;;29.00;29.15;99727.91;10375980;28;98622;-85
2022/06/25 15:24:52;;;;;;;0.43;0.30;;;30.30;46.00;;;28.24;30.61;99757.22;10383281;28;96504;-92
2022/06/25 15:29:55;;;;;;;0.20;0.17;;;29.50;46.50;;;27.57;31.16;99805.56;10382365;28;97450;-89
2022/06/25 15:34:58;;;;;;;0.38;0.20;;;29.00;46.70;;;27.05;32.53;99830.88;10380785;28;98253;-88
2022/06/25 15:40:02;;;;;;;0.90;0.40;;;28.40;47.30;;;26.41;36.50;99838.97;10364074;28;97540;-88
2022/06/25 15:45:06;;;;;;;0.60;0.40;;;27.80;50.10;;;25.56;47.20;99836.25;10371708;28;97667;-87
2022/06/25 15:50:09;;;;;;;2.42;0.32;;;27.00;56.60;;;24.61;50.97;99840.59;10381995;28;98036;-90
2022/06/25 15:55:12;;;;;;;2.22;0.60;;;26.30;60.00;;;23.82;56.39;99826.19;10363643;28;97360;-89
2022/06/25 16:00:15;;;;;;;1.70;0.70;;;25.50;66.00;;;23.21;59.64;99826.59;10365004;28;96596;-89
2022/06/25 16:05:21;;;;;;;3.08;1.13;;;24.80;67.40;;;22.77;61.69;99834.03;10379055;28;96414;-88
2022/06/25 16:10:27;;;;;;;2.65;0.80;;;24.30;69.80;;;22.40;63.98;99834.75;10361448;28;98392;-88
2022/06/25 16:15:30;;;;;;;2.70;0.95;;;23.90;73.10;;;22.14;66.79;99839.06;10381093;28;96511;-87
2022/06/25 16:20:33;;;;;;;1.35;0.85;;;23.50;78.50;;;21.92;67.01;99846.31;10382081;28;96638;-87
2022/06/25 16:25:36;;;;;;;1.25;0.77;;;23.10;79.40;;;21.71;69.36;99833.59;10380163;28;96534;-86
2022/06/25 16:30:39;;;;;;;0.93;0.70;;;22.80;83.20;;;21.67;70.28;99825.19;10382273;28;97879;-86
2022/06/25 16:35:42;;;;;;;1.88;1.10;;;22.60;87.00;;;21.76;67.55;99829.06;10386719;27;98399;-86
2022/06/25 16:40:45;;;;;;;1.30;0.98;;;22.60;82.00;;;21.81;67.47;99828.31;10361433;28;96974;-86
2022/06/25 16:45:49;;;;;;;3.10;1.05;;;22.70;83.30;;;21.81;69.25;99831.03;10376541;28;98259;-85
2022/06/25 16:50:52;;;;;;;1.83;0.95;;;22.60;87.30;;;22.05;68.38;99818.88;10365018;28;96596;-84
2022/06/25 16:56:03;;;;;;;1.73;0.80;;;22.80;85.60;;;22.27;65.50;99805.38;10374202;28;96533;-86
2022/06/25 17:01:11;;;;;;;2.07;0.80;;;22.90;82.80;;;22.32;65.18;99812.75;10356462;28;98018;-85
2022/06/25 17:06:14;;;;;;;1.80;0.75;;;22.90;83.20;;;22.07;65.84;99805.09;10349031;28;98429;-85
2022/06/25 17:11:17;;;;;;;0.98;0.63;;;22.80;84.10;;;21.87;67.64;99805.69;10375168;28;96664;-84
2022/06/25 17:16:21;;;;;;;1.15;0.63;;;22.70;86.30;;;21.71;68.95;99809.25;10378700;28;96686;-84
2022/06/25 17:21:25;;;;;;;0.60;0.52;;;22.50;88.30;;;21.66;68.58;99798.41;10392522;28;96662;-84
2022/06/25 17:26:28;;;;;;;1.30;0.60;;;22.40;88.10;;;21.53;68.73;99784.16;10376670;28;96549;-84
2022/06/25 17:31:33;;;;;;;1.30;0.80;;;22.30;87.80;;;21.48;67.17;99784.09;10377530;28;96897;-84
2022/06/25 17:36:37;;;;;;;0.75;0.52;;;22.20;85.90;;;21.47;66.47;99779.75;10375020;28;96809;-85
2022/06/25 17:41:39;;;;;;;0.60;0.30;;;22.20;85.20;;;21.40;65.28;99765.59;10375758;28;96686;-85
2022/06/25 17:46:42;;;;;;;2.15;0.57;;;22.20;84.10;;;21.34;64.46;99769.28;10358837;28;96471;-85
2022/06/25 17:51:50;;;;;;;1.25;0.80;;;22.20;84.10;;;21.24;63.22;99752.91;10347416;28;96538;-85
2022/06/25 17:56:53;;;;;;;1.02;0.60;;;22.10;81.50;;;21.16;62.46;99748.72;10373841;28;96657;-85
2022/06/25 18:01:57;;;;;;;1.08;0.45;;;22.00;81.20;;;21.10;61.33;99742.44;10358532;28;97119;-85
2022/06/25 18:07:00;;;;;;;1.02;0.50;;;22.00;80.30;;;21.08;60.10;99738.34;10373951;28;98353;-85
2022/06/25 18:12:04;;;;;;;2.75;0.75;;;21.90;77.10;;;21.07;59.28;99745.66;10368860;28;98624;-86
2022/06/25 18:17:07;;;;;;;0.55;0.40;;;21.90;76.80;;;21.04;58.90;99756.94;10375897;28;97260;-85
2022/06/25 18:22:10;;;;;;;1.05;0.60;;;21.90;75.90;;;21.04;58.61;99753.41;10392075;28;96640;-86
2022/06/25 18:27:13;;;;;;;0.68;0.40;;;21.80;75.10;;;21.02;57.89;99745.56;10374129;28;96906;-86
2022/06/25 18:32:16;;;;;;;0.28;0.22;;;21.90;75.20;;;21.06;58.23;99756.72;10384161;28;96622;-86
2022/06/25 18:37:20;;;;;;;0.70;0.50;;;21.90;75.90;;;21.05;57.29;99750.50;10375861;28;98392;-86
2022/06/25 18:42:23;;;;;;;1.30;0.32;;;21.90;75.10;;;21.08;57.41;99766.19;10364207;28;96721;-86
2022/06/25 18:47:27;;;;;;;0.60;0.40;;;22.00;75.30;;;21.09;58.39;99786.72;10366747;28;98016;-85
2022/06/25 18:52:30;;;;;;;3.83;0.95;;;22.00;76.40;;;21.11;59.71;99797.28;10371764;28;96778;-90
2022/06/25 18:57:37;;;;;;;2.05;0.60;;;22.10;77.30;;;21.06;60.14;99798.03;10364554;28;97197;-86
2022/06/25 19:02:56;;;;;;;0.88;0.50;;;22.00;77.10;;;21.01;59.51;99807.94;10367205;28;97301;-92
2022/06/25 19:08:00;;;;;;;1.08;0.60;;;22.00;77.10;;;20.96;61.60;99814.06;10364657;28;96551;-94
2022/06/25 19:13:03;;;;;;;0.80;0.60;;;22.00;79.00;;;20.82;62.49;99805.47;10354450;28;96684;-91
2022/06/25 19:18:07;;;;;;;1.75;0.98;;;21.90;79.70;;;20.63;64.03;99803.22;10354144;28;97114;-92
2022/06/25 19:23:11;;;;;;;2.67;1.00;;;21.70;80.80;;;20.45;63.17;99801.53;10354174;28;96682;-90
2022/06/25 19:28:14;;;;;;;0.80;0.55;;;21.50;80.10;;;20.31;60.82;99811.81;10370151;28;97375;-93
2022/06/25 19:33:17;;;;;;;1.77;0.90;;;21.40;77.70;;;20.27;61.22;99824.97;10342095;28;97453;-91
2022/06/25 19:38:22;;;;;;;4.00;2.28;;;21.30;78.70;;;20.25;63.83;99826.25;10364080;28;98299;-90
2022/06/25 19:43:25;;;;;;;2.25;1.30;;;21.30;81.50;;;20.15;64.95;99842.25;10355603;28;97340;-91
2022/06/25 19:53:37;;;;;;;1.45;0.90;;;21.00;83.20;;;19.86;66.02;99841.41;10263104;28;99287;-95
2022/06/25 19:58:42;;;;;;;1.63;0.80;;;20.90;83.60;;;19.76;66.29;99844.69;10260048;28;97361;-94
2022/06/25 20:03:45;;;;;;;2.03;1.10;;;20.80;84.20;;;19.69;66.34;99844.81;10249192;28;96713;-93
2022/06/25 20:08:52;;;;;;;3.30;1.67;;;20.70;84.20;;;19.62;66.92;99837.91;10257655;28;96492;-93
2022/06/25 20:13:56;;;;;;;0.98;0.75;;;20.60;84.70;;;19.60;67.66;99832.72;10254752;28;96540;-93
2022/06/25 20:18:59;;;;;;;1.77;1.02;;;20.60;85.70;;;19.54;67.24;99841.72;10239910;28;96793;-90
2022/06/25 20:24:02;;;;;;;0.50;0.50;;;20.60;85.10;;;19.52;66.95;99833.06;10260488;28;96580;-91
2022/06/25 20:29:05;;;;;;;2.90;1.17;;;20.60;84.70;;;19.56;66.72;99838.81;10276286;28;96403;-91
2022/06/25 20:34:08;;;;;;;1.90;0.77;;;20.60;84.80;;;19.50;66.16;99843.28;10261583;28;96543;-91
2022/06/25 20:39:11;;;;;;;0.98;0.55;;;20.60;84.60;;;19.44;65.66;99855.00;10254781;28;96591;-90
2022/06/25 20:44:15;;;;;;;1.48;1.02;;;20.60;83.80;;;19.40;65.68;99857.31;10240103;28;98899;-90
2022/06/25 20:49:18;;;;;;;2.00;0.80;;;20.60;84.10;;;19.35;66.22;99854.50;10253206;28;96658;-90
2022/06/25 20:54:23;;;;;;;0.68;0.52;;;20.40;84.20;;;19.22;66.58;99852.84;10252464;28;97981;-90
2022/06/25 20:59:25;;;;;;;0.80;0.50;;;20.30;85.30;;;19.13;67.25;99845.34;10252562;28;96746;-92
2022/06/25 21:09:50;;;;;;;3.53;1.50;;;20.10;85.20;;;18.95;68.02;99855.16;10240399;28;96723;-91
2022/06/25 21:14:53;;;;;;;3.08;1.23;;;20.00;86.50;;;18.87;68.14;99852.78;10238591;28;97530;-91
2022/06/25 21:19:56;;;;;;;2.58;0.73;;;19.90;87.20;;;18.78;68.93;99845.28;10235027;28;96639;-90
2022/06/25 21:25:03;;;;;;;1.88;0.88;;;19.90;88.10;;;18.69;69.02;99842.91;10239186;28;97305;-91
2022/06/25 21:30:07;;;;;;;1.00;0.73;;;19.80;88.40;;;18.59;69.65;99849.84;10237347;28;98595;-90
2022/06/25 21:35:11;;;;;;;4.03;1.80;;;19.70;88.70;;;18.48;70.28;99843.41;10240214;28;97319;-91
2022/06/25 21:40:14;;;;;;;0.85;0.68;;;19.60;89.00;;;18.36;70.54;99839.84;10254571;28;96689;-91
2022/06/25 21:45:17;;;;;;;2.10;1.00;;;19.50;90.10;;;18.27;71.14;99843.88;10252080;28;98565;-90
2022/06/25 21:50:21;;;;;;;1.17;0.70;;;19.30;90.30;;;18.15;71.40;99838.44;10253640;28;96593;-90
2022/06/25 21:55:24;;;;;;;1.08;0.60;;;19.30;90.40;;;18.08;71.46;99833.16;10254743;28;96941;-91